Time;durP1;ratioP1;P1;durP2;ratioP2;P2;SDS_P1;SDS_P2;PMS_P1;PMS_P2;Temp;Humidity;BMP_temperature;BMP_pressure;BME280_temperature;BME280_humidity;BME280_pressure;Samples;Min_cycle;Max_cycle;Signal;HPM_P1;HPM_P2
2022/05/13 00:00:42;;;;;;;8.10;4.10;;;;;;;21.47;43.95;101017.71;104500;1309;60588;-82
2022/05/13 00:03:08;;;;;;;6.60;4.10;;;;;;;21.48;44.05;101013.39;104520;1309;60348;-85
2022/05/13 00:05:42;;;;;;;6.10;4.10;;;;;;;21.47;43.89;101010.89;104500;1310;60542;-83
2022/05/13 00:08:14;;;;;;;7.40;4.50;;;;;;;21.48;43.97;101006.77;104539;1309;74957;-87
2022/05/13 00:10:48;;;;;;;6.80;4.10;;;;;;;21.47;43.99;101012.01;104681;1306;61926;-85
2022/05/13 00:13:36;;;;;;;8.30;4.50;;;;;;;21.47;44.06;101012.89;104618;1306;60494;-83
2022/05/13 00:16:04;;;;;;;7.70;4.00;;;;;;;21.47;44.01;101014.52;104565;1306;72028;-83
2022/05/13 00:18:30;;;;;;;7.10;4.10;;;;;;;21.47;44.09;101013.60;104497;1306;73975;-84
2022/05/13 00:20:59;;;;;;;6.90;4.40;;;;;;;21.48;43.89;101011.61;104586;1306;60852;-82
2022/05/13 00:23:37;;;;;;;7.30;4.30;;;;;;;21.47;43.81;101011.64;104528;1306;61490;-82
2022/05/13 00:26:06;;;;;;;8.20;4.70;;;;;;;21.47;44.04;101015.21;104556;1306;73884;-80
2022/05/13 00:28:32;;;;;;;5.30;4.10;;;;;;;21.47;43.94;101018.44;104649;1306;75150;-84
2022/05/13 00:31:04;;;;;;;8.00;4.20;;;;;;;21.47;43.79;101017.39;104485;1309;60392;-84
2022/05/13 00:33:32;;;;;;;6.50;4.00;;;;;;;21.47;43.95;101018.81;104465;1308;61683;-85
2022/05/13 00:36:07;;;;;;;8.60;4.60;;;;;;;21.47;43.97;101013.11;104712;1306;72664;-84
2022/05/13 00:38:52;;;;;;;6.50;4.00;;;;;;;21.47;43.93;101010.58;104585;1306;74904;-83
2022/05/13 00:41:30;;;;;;;6.90;4.30;;;;;;;21.46;43.95;101007.59;104604;1306;60503;-83
2022/05/13 00:43:56;;;;;;;9.10;3.80;;;;;;;21.46;44.07;101004.02;104876;1306;61615;-85
2022/05/13 00:46:26;;;;;;;6.00;3.90;;;;;;;21.46;44.07;101003.10;104599;1306;73722;-85
2022/05/13 00:48:56;;;;;;;8.30;4.00;;;;;;;21.47;43.87;101003.61;104508;1309;73919;-83
2022/05/13 00:51:36;;;;;;;6.50;4.00;;;;;;;21.47;44.04;101005.25;104557;1306;60545;-84
2022/05/13 00:54:14;;;;;;;8.00;4.10;;;;;;;21.46;43.88;101005.44;104507;1307;60620;-84
2022/05/13 00:56:44;;;;;;;8.60;4.30;;;;;;;21.47;43.92;101001.47;104656;1306;74379;-83
2022/05/13 00:59:20;;;;;;;6.30;3.90;;;;;;;21.46;43.94;101001.49;104700;1306;74867;-82
2022/05/13 01:01:49;;;;;;;6.70;3.90;;;;;;;21.47;43.97;100998.61;104544;1306;61510;-84
2022/05/13 01:04:28;;;;;;;7.00;4.50;;;;;;;21.46;43.90;100996.66;104513;1309;61866;-84
2022/05/13 01:06:56;;;;;;;6.90;4.20;;;;;;;21.47;43.97;100998.98;104586;1306;72797;-83
2022/05/13 01:09:28;;;;;;;5.90;3.80;;;;;;;21.46;43.99;100998.63;104653;1306;74067;-83
2022/05/13 01:11:57;;;;;;;5.80;3.60;;;;;;;21.46;43.84;101000.24;104528;1306;60318;-82
2022/05/13 01:14:26;;;;;;;6.60;3.80;;;;;;;21.46;43.71;100999.71;104455;1307;60841;-83
2022/05/13 01:19:42;;;;;;;7.50;3.80;;;;;;;21.46;43.91;101001.38;104604;1306;74942;-83
2022/05/13 01:22:14;;;;;;;6.50;4.30;;;;;;;21.46;43.96;101003.69;104670;1306;60560;-86
2022/05/13 01:24:45;;;;;;;6.60;4.10;;;;;;;21.46;44.03;101001.73;104573;1307;60393;-89
2022/05/13 01:27:14;;;;;;;6.90;3.80;;;;;;;21.46;43.90;100998.31;104816;1306;73338;-84
2022/05/13 01:29:43;;;;;;;6.30;4.10;;;;;;;21.46;43.91;100998.51;104570;1306;74086;-86
2022/05/13 01:32:09;;;;;;;7.50;3.80;;;;;;;21.46;43.88;100999.57;104637;1307;61421;-84
2022/05/13 01:34:38;;;;;;;6.20;3.60;;;;;;;21.45;43.94;100997.80;104549;1307;60487;-82
2022/05/13 01:37:06;;;;;;;7.70;4.10;;;;;;;21.46;43.91;100997.27;104562;1306;73123;-84
2022/05/13 01:39:32;;;;;;;6.70;4.40;;;;;;;21.45;43.87;100994.98;104569;1307;73989;-80
2022/05/13 01:42:04;;;;;;;6.70;4.10;;;;;;;21.45;43.94;100997.31;104631;1306;60471;-84
2022/05/13 01:44:33;;;;;;;5.60;3.60;;;;;;;21.45;43.85;100994.27;104673;1306;60436;-83
2022/05/13 01:47:07;;;;;;;8.50;4.20;;;;;;;21.45;44.04;100991.05;104559;1306;74021;-89
2022/05/13 01:49:36;;;;;;;6.60;3.80;;;;;;;21.45;43.80;100987.27;104831;1306;74827;-90
2022/05/13 01:52:05;;;;;;;6.00;3.80;;;;;;;21.45;43.83;100984.95;104683;1306;60512;-84
2022/05/13 01:54:30;;;;;;;5.80;3.80;;;;;;;21.44;43.83;100984.79;104712;1306;61641;-83
2022/05/13 01:57:01;;;;;;;5.60;3.80;;;;;;;21.44;43.84;100986.06;104649;1306;72859;-83
2022/05/13 01:59:35;;;;;;;7.90;3.30;;;;;;;21.44;43.93;100986.44;104568;1306;75057;-83
2022/05/13 02:02:04;;;;;;;5.50;3.60;;;;;;;21.44;43.82;100983.71;104667;1306;61831;-82
2022/05/13 02:04:30;;;;;;;7.00;4.00;;;;;;;21.44;43.76;100988.21;104576;1306;60520;-82
2022/05/13 02:06:58;;;;;;;6.50;4.00;;;;;;;21.44;43.90;100991.79;104574;1306;60570;-88
2022/05/13 02:09:27;;;;;;;6.20;4.10;;;;;;;21.44;43.85;100993.27;104574;1306;73780;-85
2022/05/13 02:12:02;;;;;;;6.20;4.30;;;;;;;21.43;43.68;100992.02;104652;1309;60638;-81
2022/05/13 02:14:30;;;;;;;7.00;4.10;;;;;;;21.43;43.62;100996.68;104588;1306;60741;-83
2022/05/13 02:16:59;;;;;;;8.50;4.40;;;;;;;21.43;43.91;100988.11;104678;1306;73079;-83
2022/05/13 02:19:27;;;;;;;8.00;4.40;;;;;;;21.44;43.74;100993.09;104674;1306;74878;-81
2022/05/13 02:21:59;;;;;;;7.10;4.50;;;;;;;21.43;43.71;100991.87;104722;1306;60474;-82
2022/05/13 02:24:28;;;;;;;7.40;4.20;;;;;;;21.43;43.69;100988.64;104668;1306;60798;-83
2022/05/13 02:26:59;;;;;;;7.50;4.30;;;;;;;21.43;43.86;100987.02;104496;1306;73896;-87
2022/05/13 02:29:28;;;;;;;7.10;4.30;;;;;;;21.43;43.71;100985.08;104651;1306;75043;-80
2022/05/13 02:32:07;;;;;;;7.10;4.30;;;;;;;21.43;43.76;100987.92;104714;1306;61540;-82
2022/05/13 02:34:36;;;;;;;6.60;4.30;;;;;;;21.42;43.73;100982.23;104652;1306;61589;-82
2022/05/13 02:37:07;;;;;;;7.80;4.40;;;;;;;21.42;43.93;100981.17;104696;1306;72782;-85
2022/05/13 02:39:42;;;;;;;5.90;4.00;;;;;;;21.42;43.62;100980.61;104566;1306;74246;-83
2022/05/13 02:42:11;;;;;;;6.60;4.00;;;;;;;21.42;43.62;100981.88;104498;1308;60404;-85
2022/05/13 02:44:44;;;;;;;5.90;3.90;;;;;;;21.42;43.68;100984.78;104583;1306;60383;-85
2022/05/13 02:47:12;;;;;;;6.10;4.10;;;;;;;21.43;43.71;100986.35;104659;1306;73727;-83
2022/05/13 02:50:17;;;;;;;6.70;4.00;;;;;;;21.43;43.75;100985.09;104532;1306;74394;-84
2022/05/13 02:52:42;;;;;;;7.40;4.10;;;;;;;21.42;43.71;100982.09;104704;1306;60456;-84
2022/05/13 02:55:21;;;;;;;5.40;3.90;;;;;;;21.42;43.63;100981.70;104678;1306;61031;-85
2022/05/13 02:57:49;;;;;;;7.30;4.70;;;;;;;21.42;43.57;100982.78;104863;1306;72779;-83
2022/05/13 03:00:27;;;;;;;6.40;4.20;;;;;;;21.42;43.66;100982.78;104568;1307;73952;-85
2022/05/13 03:02:53;;;;;;;8.70;3.90;;;;;;;21.42;43.56;100988.88;104627;1306;60383;-86
2022/05/13 03:05:31;;;;;;;6.70;4.10;;;;;;;21.42;43.71;100989.94;104558;1306;60644;-82
2022/05/13 03:08:08;;;;;;;7.40;4.00;;;;;;;21.43;43.74;100987.59;104678;1306;73317;-82
2022/05/13 03:10:44;;;;;;;7.00;4.20;;;;;;;21.42;43.72;100985.09;104571;1306;75130;-83
2022/05/13 03:13:13;;;;;;;6.80;4.20;;;;;;;21.42;43.66;100989.93;104887;1306;60503;-84
2022/05/13 03:15:42;;;;;;;7.30;4.40;;;;;;;21.43;43.66;100989.02;104591;1306;61417;-84
2022/05/13 03:18:16;;;;;;;6.50;4.30;;;;;;;21.42;43.62;100991.91;104676;1306;72818;-88
2022/05/13 03:20:51;;;;;;;7.90;4.00;;;;;;;21.43;43.69;100990.81;104640;1306;73979;-85
2022/05/13 03:23:33;;;;;;;6.80;4.30;;;;;;;21.43;43.68;100999.90;104678;1306;60548;-83
2022/05/13 03:26:02;;;;;;;6.80;4.20;;;;;;;21.43;43.73;101001.15;104406;1306;60579;-88
2022/05/13 03:28:37;;;;;;;6.60;4.10;;;;;;;21.44;43.71;101009.38;104688;1306;72737;-83
2022/05/13 03:31:11;;;;;;;7.30;3.90;;;;;;;21.43;43.80;101012.44;104667;1306;73775;-88
2022/05/13 03:33:40;;;;;;;7.30;4.20;;;;;;;21.43;43.64;101013.52;104569;1307;60387;-83
2022/05/13 03:36:11;;;;;;;5.70;3.90;;;;;;;21.44;43.72;101008.30;104566;1306;61433;-82
2022/05/13 03:38:44;;;;;;;7.60;3.80;;;;;;;21.44;43.72;101011.48;104602;1306;72847;-84
2022/05/13 03:41:17;;;;;;;7.10;3.80;;;;;;;21.44;43.68;101009.72;104536;1306;74943;-84
2022/05/13 03:43:46;;;;;;;6.40;3.70;;;;;;;21.44;43.71;101008.80;104587;1306;60351;-82
2022/05/13 03:46:17;;;;;;;5.80;3.80;;;;;;;21.44;43.70;101012.20;104520;1306;60412;-84
2022/05/13 03:48:46;;;;;;;6.50;3.90;;;;;;;21.44;43.81;101012.55;104582;1306;73663;-84
2022/05/13 03:51:15;;;;;;;9.00;4.20;;;;;;;21.45;43.73;101010.02;104553;1306;75396;-84
2022/05/13 03:53:46;;;;;;;7.40;4.20;;;;;;;21.44;43.67;101011.83;104563;1306;60634;-82
2022/05/13 03:56:16;;;;;;;5.70;3.80;;;;;;;21.44;43.81;101018.64;104661;1306;60324;-81
2022/05/13 03:58:42;;;;;;;5.90;3.60;;;;;;;21.44;43.62;101020.98;104551;1306;73922;-82
2022/05/13 04:01:10;;;;;;;6.00;3.80;;;;;;;21.43;43.81;101025.33;104520;1306;74040;-82
2022/05/13 04:03:38;;;;;;;8.80;4.00;;;;;;;21.43;43.63;101028.73;104656;1306;60468;-82
2022/05/13 04:09:03;;;;;;;7.10;4.20;;;;;;;21.43;43.80;101034.67;104650;1306;73654;-87
2022/05/13 04:11:40;;;;;;;7.10;4.60;;;;;;;21.42;43.64;101042.58;104483;1306;72852;-86
2022/05/13 04:17:20;;;;;;;8.80;5.00;;;;;;;21.41;43.59;101037.85;104838;1306;60382;-83
2022/05/13 04:19:46;;;;;;;8.40;4.50;;;;;;;21.41;43.57;101037.46;104501;1306;73245;-83
2022/05/13 04:22:24;;;;;;;14.60;5.10;;;;;;;21.41;43.47;101041.57;104362;1306;75227;-84
2022/05/13 04:24:53;;;;;;;22.30;7.00;;;;;;;21.42;43.55;101036.73;104569;1306;61305;-82
2022/05/13 04:27:19;;;;;;;15.80;6.10;;;;;;;21.42;43.43;101035.27;104402;1306;60756;-84
2022/05/13 04:29:45;;;;;;;16.30;6.50;;;;;;;21.41;43.33;101040.67;104584;1304;60581;-84
2022/05/13 04:32:11;;;;;;;12.90;6.60;;;;;;;21.42;43.16;101043.33;104406;1306;59304;-83
2022/05/13 04:34:37;;;;;;;18.90;7.10;;;;;;;21.42;43.08;101039.55;104222;1306;60459;-80
2022/05/13 04:37:03;;;;;;;14.80;7.10;;;;;;;21.42;42.92;101042.75;104346;1306;60508;-84
2022/05/13 04:39:29;;;;;;;12.80;7.30;;;;;;;21.42;43.09;101038.82;104417;1306;59336;-82
2022/05/13 04:44:39;;;;;;;13.00;5.50;;;;;;;21.44;42.97;101040.53;104396;1306;60343;-82
2022/05/13 04:48:15;;;;;;;18.50;5.40;;;;;;;21.44;43.03;101042.31;104377;1307;59378;-81
2022/05/13 04:49:50;;;;;;;16.10;5.30;;;;;;;21.44;42.89;101041.41;104257;1309;74061;-81
2022/05/13 04:52:16;;;;;;;11.70;4.80;;;;;;;21.44;42.93;101038.88;104331;1307;60507;-81
2022/05/13 04:54:42;;;;;;;15.10;5.40;;;;;;;21.43;42.79;101040.92;104240;1306;60590;-81
2022/05/13 04:57:08;;;;;;;13.30;4.70;;;;;;;21.44;43.07;101042.31;104232;1306;59222;-82
2022/05/13 04:59:33;;;;;;;15.20;5.50;;;;;;;21.45;43.04;101049.41;104465;1306;60469;-81
2022/05/13 05:02:34;;;;;;;14.00;4.30;;;;;;;21.46;43.03;101051.84;104401;1306;59047;-83
2022/05/13 05:05:00;;;;;;;11.80;4.60;;;;;;;21.47;43.04;101051.92;104961;1306;73243;-82
2022/05/13 05:07:26;;;;;;;19.70;5.00;;;;;;;21.49;43.06;101046.59;105058;1305;59729;-82
2022/05/13 05:09:52;;;;;;;12.00;4.80;;;;;;;21.52;43.21;101048.19;105148;1306;59945;-83
2022/05/13 05:12:18;;;;;;;11.10;4.40;;;;;;;21.55;43.01;101052.31;104503;1306;60552;-82
2022/05/13 05:14:44;;;;;;;10.40;4.70;;;;;;;21.58;43.12;101054.97;104218;1306;60465;-81
2022/05/13 05:17:10;;;;;;;8.40;4.50;;;;;;;21.61;43.07;101057.83;104360;1306;59327;-81
2022/05/13 05:19:36;;;;;;;8.90;4.60;;;;;;;21.64;42.98;101058.54;104508;1306;60481;-82
2022/05/13 05:22:01;;;;;;;12.30;4.90;;;;;;;21.66;42.99;101060.34;104344;1306;60493;-85
2022/05/13 05:24:27;;;;;;;10.50;4.30;;;;;;;21.69;42.92;101057.08;104588;1306;72856;-84
2022/05/13 05:26:53;;;;;;;10.30;4.60;;;;;;;21.70;42.83;101054.84;104262;1309;60535;-83
2022/05/13 05:29:18;;;;;;;7.20;4.30;;;;;;;21.73;42.72;101057.20;104310;1306;60508;-83
2022/05/13 05:31:44;;;;;;;8.40;4.60;;;;;;;21.74;42.55;101057.25;104496;1306;59289;-83
2022/05/13 05:34:11;;;;;;;8.90;4.90;;;;;;;21.77;42.65;101062.45;104293;1306;60378;-82
2022/05/13 05:36:37;;;;;;;7.00;4.40;;;;;;;21.78;42.67;101061.11;104537;1306;60495;-82
2022/05/13 05:39:03;;;;;;;8.70;4.40;;;;;;;21.80;42.51;101060.63;104570;1306;60468;-83
2022/05/13 05:41:28;;;;;;;8.40;4.30;;;;;;;21.81;42.54;101063.58;104390;1306;60618;-83
2022/05/13 05:43:54;;;;;;;10.20;4.40;;;;;;;21.82;42.45;101066.19;104365;1307;61336;-82
2022/05/13 05:46:19;;;;;;;8.10;4.60;;;;;;;21.83;42.59;101065.91;104298;1306;59345;-83
2022/05/13 05:48:45;;;;;;;8.30;4.30;;;;;;;21.85;42.33;101063.70;104309;1309;60459;-82
2022/05/13 05:51:11;;;;;;;7.80;3.90;;;;;;;21.86;42.31;101061.66;104643;1306;60494;-84
2022/05/13 05:59:05;;;;;;;18.20;4.60;;;;;;;21.85;42.32;101054.33;104430;1306;72656;-82
2022/05/13 06:01:31;;;;;;;10.90;4.60;;;;;;;21.87;42.38;101053.70;104317;1306;59276;-83
2022/05/13 06:03:57;;;;;;;19.30;5.00;;;;;;;21.88;42.60;101051.08;104237;1309;59423;-83
2022/05/13 06:06:22;;;;;;;14.60;4.70;;;;;;;21.90;42.86;101050.58;104294;1306;60558;-83
2022/05/13 06:08:50;;;;;;;12.50;4.70;;;;;;;21.92;42.84;101051.67;104370;1306;60504;-83
2022/05/13 06:11:15;;;;;;;23.30;4.90;;;;;;;21.94;42.95;101049.98;104375;1306;60487;-83
2022/05/13 06:13:41;;;;;;;12.90;4.70;;;;;;;21.96;43.04;101046.81;104247;1306;60932;-82
2022/05/13 06:16:09;;;;;;;11.90;4.40;;;;;;;21.96;43.06;101050.36;104360;1306;59660;-82
2022/05/13 06:18:36;;;;;;;13.10;4.60;;;;;;;21.98;43.08;101048.25;104233;1306;60957;-82
2022/05/13 06:21:02;;;;;;;17.80;4.40;;;;;;;21.99;43.18;101044.23;104404;1306;60428;-82
2022/05/13 06:23:27;;;;;;;14.40;4.30;;;;;;;22.00;43.20;101043.27;104304;1306;60475;-83
2022/05/13 06:25:53;;;;;;;13.10;4.20;;;;;;;22.00;43.12;101041.49;104396;1306;60490;-81
2022/05/13 06:28:19;;;;;;;13.40;4.40;;;;;;;21.99;43.07;101040.44;104390;1306;60651;-82
2022/05/13 06:30:44;;;;;;;16.90;4.40;;;;;;;22.00;43.02;101047.77;104253;1306;73716;-83
2022/05/13 06:33:10;;;;;;;10.30;4.20;;;;;;;21.99;42.95;101051.06;104367;1306;60672;-83
2022/05/13 06:35:35;;;;;;;13.20;4.60;;;;;;;21.99;42.63;101050.87;104330;1309;60519;-83
2022/05/13 06:38:02;;;;;;;8.90;4.10;;;;;;;21.99;42.46;101057.27;104478;1307;59757;-82
2022/05/13 06:40:28;;;;;;;11.70;4.10;;;;;;;22.00;42.12;101052.38;104476;1306;59202;-81
2022/05/13 06:42:53;;;;;;;14.70;4.80;;;;;;;22.02;41.99;101050.28;104397;1306;60485;-81
2022/05/13 06:45:20;;;;;;;16.60;4.30;;;;;;;22.04;42.53;101055.85;104376;1306;60465;-83
2022/05/13 06:47:46;;;;;;;19.50;4.50;;;;;;;22.06;43.15;101052.67;104228;1309;59627;-83
2022/05/13 06:50:13;;;;;;;16.80;5.00;;;;;;;22.07;43.64;101051.48;104599;1306;61404;-82
2022/05/13 06:52:39;;;;;;;16.40;4.70;;;;;;;22.09;43.63;101053.90;103871;1306;72833;-82
2022/05/13 06:55:05;;;;;;;23.70;4.70;;;;;;;22.09;43.93;101053.34;103674;1309;60613;-83
2022/05/13 06:57:31;;;;;;;22.90;5.00;;;;;;;22.09;44.22;101047.08;103992;1309;59181;-82
2022/05/13 06:59:56;;;;;;;17.60;5.10;;;;;;;22.09;44.33;101050.13;104151;1308;59346;-82
2022/05/13 07:02:23;;;;;;;14.50;4.50;;;;;;;22.10;44.48;101051.67;103916;1309;60550;-83
2022/05/13 07:04:48;;;;;;;29.00;5.10;;;;;;;22.12;44.14;101054.58;103584;1309;60606;-86
2022/05/13 07:07:33;;;;;;;;;;;;;;;;;;;;;
2022/05/13 07:10:00;;;;;;;16.80;4.60;;;;;;;22.18;44.21;101059.89;104502;1306;60252;-81
2022/05/13 07:12:26;;;;;;;22.80;4.90;;;;;;;22.19;44.48;101062.52;104347;1306;59307;-82
2022/05/13 07:14:53;;;;;;;15.20;4.50;;;;;;;22.20;44.66;101067.66;104361;1306;60702;-81
2022/05/13 07:17:19;;;;;;;20.60;5.00;;;;;;;22.22;45.05;101064.65;105124;1306;59672;-82
2022/05/13 07:19:45;;;;;;;19.10;4.70;;;;;;;22.22;45.28;101064.41;105210;1306;58651;-82
2022/05/13 07:22:11;;;;;;;21.70;4.50;;;;;;;22.23;45.32;101065.63;105006;1306;59332;-81
2022/05/13 07:24:36;;;;;;;22.70;5.30;;;;;;;22.25;45.58;101061.39;104307;1306;60432;-82
2022/05/13 07:27:02;;;;;;;26.60;5.10;;;;;;;22.25;45.61;101058.99;104568;1306;59857;-82
2022/05/13 07:29:28;;;;;;;17.30;4.60;;;;;;;22.26;45.88;101060.40;104366;1306;60334;-82
2022/05/13 07:31:53;;;;;;;17.70;4.40;;;;;;;22.27;45.88;101057.81;104453;1306;60506;-82
2022/05/13 07:34:19;;;;;;;17.40;4.30;;;;;;;22.27;45.94;101056.02;104427;1306;60399;-85
2022/05/13 07:36:46;;;;;;;15.20;4.80;;;;;;;22.27;46.00;101054.23;104444;1307;60606;-83
2022/05/13 07:41:56;;;;;;;9.50;4.60;;;;;;;22.29;45.43;101048.19;104360;1309;60862;-82
2022/05/13 07:44:22;;;;;;;17.10;4.30;;;;;;;22.30;45.02;101045.94;104334;1306;60521;-83
2022/05/13 07:46:47;;;;;;;19.40;4.60;;;;;;;22.31;45.27;101046.23;104325;1306;60494;-83
2022/05/13 07:49:13;;;;;;;14.70;5.00;;;;;;;22.32;45.49;101047.99;104351;1306;60481;-82
2022/05/13 07:51:38;;;;;;;13.30;4.50;;;;;;;22.32;45.46;101045.13;104420;1309;60364;-81
2022/05/13 07:54:04;;;;;;;17.10;4.40;;;;;;;22.33;45.45;101042.89;104169;1306;61095;-82
2022/05/13 07:56:30;;;;;;;20.90;4.50;;;;;;;22.34;45.35;101042.82;104122;1307;72099;-82
2022/05/13 07:58:57;;;;;;;19.40;4.40;;;;;;;22.33;45.61;101041.59;104246;1306;59439;-82
2022/05/13 08:01:24;;;;;;;22.10;4.70;;;;;;;22.34;45.62;101045.66;104264;1306;61569;-82
2022/05/13 08:03:50;;;;;;;14.50;4.90;;;;;;;22.35;45.90;101038.98;103799;1309;60560;-84
2022/05/13 08:06:16;;;;;;;32.80;5.10;;;;;;;22.37;45.60;101036.13;103798;1307;61184;-80
2022/05/13 08:08:45;;;;;;;20.30;5.50;;;;;;;22.39;45.62;101034.55;104317;1306;60407;-82
2022/05/13 08:11:12;;;;;;;17.00;4.70;;;;;;;22.40;45.55;101036.66;104254;1306;61158;-82
2022/05/13 08:13:41;;;;;;;14.90;4.40;;;;;;;22.40;45.39;101031.96;104318;1306;61480;-82
2022/05/13 08:16:09;;;;;;;18.60;4.80;;;;;;;22.41;45.24;101026.70;104396;1306;72812;-82
2022/05/13 08:18:35;;;;;;;15.10;4.30;;;;;;;22.42;45.20;101029.89;104430;1306;74086;-81
2022/05/13 08:21:01;;;;;;;24.80;5.30;;;;;;;22.41;45.30;101034.09;104314;1306;60580;-82
2022/05/13 08:23:27;;;;;;;16.80;4.70;;;;;;;22.39;45.60;101034.73;104445;1306;60712;-82
2022/05/13 08:25:53;;;;;;;19.50;5.50;;;;;;;22.39;45.71;101033.45;104292;1309;60509;-83
2022/05/13 08:28:21;;;;;;;26.00;4.90;;;;;;;22.41;45.64;101029.89;104355;1309;60598;-81
2022/05/13 08:30:46;;;;;;;20.20;4.70;;;;;;;22.43;46.24;101032.86;104297;1309;60431;-84
2022/05/13 08:33:12;;;;;;;12.00;4.40;;;;;;;22.42;46.36;101030.20;104155;1310;60544;-80
2022/05/13 08:35:40;;;;;;;16.60;4.70;;;;;;;22.42;46.64;101031.48;104398;1309;61172;-82
2022/05/13 08:38:06;;;;;;;17.80;4.40;;;;;;;22.41;46.72;101027.64;104423;1306;60599;-83
2022/05/13 08:40:48;;;;;;;17.80;4.70;;;;;;;22.39;46.75;101028.61;104356;1306;60338;-84
2022/05/13 08:43:16;;;;;;;16.20;4.50;;;;;;;22.40;46.83;101028.25;104414;1306;60568;-83
2022/05/13 08:45:54;;;;;;;16.90;4.50;;;;;;;22.43;46.94;101027.67;104465;1306;73901;-83
2022/05/13 08:48:33;;;;;;;16.30;4.50;;;;;;;22.45;46.94;101027.34;105292;1306;74129;-82
2022/05/13 08:51:15;;;;;;;19.50;5.10;;;;;;;22.46;47.18;101025.61;104995;1309;59499;-81
2022/05/13 08:54:08;;;;;;;19.50;4.90;;;;;;;22.47;47.45;101021.42;104455;1308;63393;-84
2022/05/13 08:56:34;;;;;;;33.00;5.30;;;;;;;22.50;47.71;101018.89;104313;1306;72676;-82
2022/05/13 08:59:08;;;;;;;19.20;4.90;;;;;;;22.54;47.75;101022.75;104553;1306;73652;-84
2022/05/13 09:01:42;;;;;;;22.10;4.90;;;;;;;22.56;47.81;101018.08;104563;1306;59773;-84
2022/05/13 09:04:11;;;;;;;12.00;4.40;;;;;;;22.65;47.31;101013.84;104427;1306;60494;-83
2022/05/13 09:06:43;;;;;;;15.90;4.80;;;;;;;22.68;47.03;101015.38;104569;1306;72887;-82
2022/05/13 09:09:10;;;;;;;19.60;4.80;;;;;;;22.67;47.19;101015.29;105107;1306;74145;-82
2022/05/13 09:11:52;;;;;;;19.50;4.80;;;;;;;22.67;47.18;101012.95;105155;1306;61181;-81
2022/05/13 09:14:50;;;;;;;17.70;4.80;;;;;;;22.66;47.30;101005.64;104986;1306;61403;-81
2022/05/13 09:17:37;;;;;;;14.20;4.30;;;;;;;22.65;47.44;101007.91;105188;1306;75787;-82
2022/05/13 09:20:06;;;;;;;16.40;4.50;;;;;;;22.64;47.66;101006.73;105134;1309;74514;-83
2022/05/13 09:22:58;;;;;;;12.30;4.40;;;;;;;22.65;47.37;101001.98;105290;1306;60325;-83
2022/05/13 09:25:26;;;;;;;20.40;5.00;;;;;;;22.67;47.23;101003.66;105445;1305;60498;-83
2022/05/13 09:27:59;;;;;;;14.20;4.70;;;;;;;22.65;47.28;100999.08;104833;1309;72740;-82
2022/05/13 09:30:38;;;;;;;16.00;4.30;;;;;;;22.63;47.50;100998.89;105098;1306;73865;-82
2022/05/13 09:33:23;;;;;;;18.50;4.60;;;;;;;22.62;47.56;100992.73;104500;1306;60251;-82
2022/05/13 09:35:51;;;;;;;20.10;5.10;;;;;;;22.64;47.08;100990.61;104384;1306;60354;-82
2022/05/13 09:38:19;;;;;;;13.00;4.40;;;;;;;22.63;47.20;100989.26;105071;1305;73895;-82
2022/05/13 09:41:06;;;;;;;14.50;4.20;;;;;;;22.60;47.03;100990.30;105047;1309;73951;-83
2022/05/13 09:43:34;;;;;;;13.20;4.50;;;;;;;22.58;47.01;100987.96;104431;1306;60386;-82
2022/05/13 09:46:06;;;;;;;14.40;4.20;;;;;;;22.56;46.96;100990.98;105240;1306;59565;-82
2022/05/13 09:48:32;;;;;;;13.00;4.30;;;;;;;22.54;46.97;100984.17;104434;1306;72718;-82
2022/05/13 09:51:19;;;;;;;15.90;4.10;;;;;;;22.52;46.90;100976.57;104268;1306;74165;-83
2022/05/13 09:53:44;;;;;;;10.10;4.30;;;;;;;22.55;46.52;100978.15;104043;1309;61567;-83
2022/05/13 09:56:10;;;;;;;21.50;4.90;;;;;;;22.57;46.16;100972.23;104282;1306;60572;-82
2022/05/13 09:58:49;;;;;;;17.80;4.50;;;;;;;22.61;45.83;100968.36;104216;1306;60613;-83
2022/05/13 10:01:15;;;;;;;;;;;;;;;22.60;45.89;100965.91;104446;1306;73886;-82
2022/05/13 10:03:41;;;;;;;12.90;4.00;;;;;;;22.56;45.91;100965.30;104526;1306;59327;-83
2022/05/13 10:06:09;;;;;;;14.90;4.30;;;;;;;22.56;46.09;100958.91;104325;1307;60481;-82
2022/05/13 10:08:37;;;;;;;17.50;4.20;;;;;;;22.53;46.24;100956.08;104647;1306;72722;-84
2022/05/13 10:14:00;;;;;;;15.00;4.00;;;;;;;22.51;46.31;100949.39;103584;1307;60689;-83
2022/05/13 10:16:37;;;;;;;9.80;3.90;;;;;;;22.58;46.04;100947.84;103685;1307;60556;-82
2022/05/13 10:19:13;;;;;;;16.40;4.10;;;;;;;22.65;45.47;100947.95;103769;1309;74294;-82
2022/05/13 10:21:48;;;;;;;15.20;4.40;;;;;;;22.68;45.28;100945.41;103822;1306;74079;-83
2022/05/13 10:24:27;;;;;;;13.30;3.90;;;;;;;22.71;44.94;100940.33;103975;1306;60456;-81
2022/05/13 10:26:53;;;;;;;17.40;4.50;;;;;;;22.73;44.75;100939.10;103772;1306;60965;-82
2022/05/13 10:29:21;;;;;;;20.30;4.30;;;;;;;22.71;44.72;100936.02;103598;1306;60559;-82
2022/05/13 10:31:49;;;;;;;15.90;4.30;;;;;;;22.70;44.89;100931.11;103360;1309;74763;-82
2022/05/13 10:34:29;;;;;;;15.00;4.40;;;;;;;22.71;44.76;100923.13;103645;1309;60484;-82
2022/05/13 10:37:04;;;;;;;14.60;4.40;;;;;;;22.71;44.57;100918.30;105268;1307;60454;-83
2022/05/13 10:39:41;;;;;;;21.60;4.50;;;;;;;22.68;44.56;100916.18;105467;1306;73047;-83
2022/05/13 10:42:11;;;;;;;17.20;4.10;;;;;;;22.67;44.54;100913.22;105342;1306;75078;-82
2022/05/13 10:44:54;;;;;;;16.00;4.00;;;;;;;22.68;44.34;100909.95;105102;1309;61351;-82
2022/05/13 10:47:30;;;;;;;11.40;4.00;;;;;;;22.67;44.38;100907.64;105171;1308;61832;-82
2022/05/13 10:49:55;;;;;;;10.60;3.80;;;;;;;22.67;44.22;100906.77;105103;1309;74714;-82
2022/05/13 10:52:24;;;;;;;15.20;4.30;;;;;;;22.68;43.87;100895.17;105172;1309;58797;-82
2022/05/13 10:54:55;;;;;;;23.60;4.80;;;;;;;22.69;43.89;100892.63;105260;1307;59768;-82
2022/05/13 10:57:39;;;;;;;14.20;4.10;;;;;;;22.68;43.88;100894.52;105440;1305;61765;-81
2022/05/13 11:00:12;;;;;;;8.40;4.10;;;;;;;22.68;43.76;100892.52;105445;1306;72961;-82
2022/05/13 11:03:21;;;;;;;16.90;4.00;;;;;;;22.73;43.32;100890.38;105278;1306;74015;-82
2022/05/13 11:05:52;;;;;;;13.30;4.10;;;;;;;22.72;43.37;100889.88;105284;1306;59500;-81
2022/05/13 11:08:23;;;;;;;12.10;4.30;;;;;;;22.72;43.22;100884.49;105502;1306;60494;-87
2022/05/13 11:10:56;;;;;;;12.00;4.40;;;;;;;22.72;43.20;100880.23;103940;1309;73759;-87
2022/05/13 11:13:50;;;;;;;12.60;4.80;;;;;;;22.75;43.17;100875.27;103945;1309;73001;-82
2022/05/13 11:16:52;;;;;;;12.00;4.30;;;;;;;22.74;43.10;100867.66;105391;1308;60560;-82
2022/05/13 11:19:29;;;;;;;12.20;4.10;;;;;;;22.72;43.11;100862.91;105508;1306;60378;-83
2022/05/13 11:22:42;;;;;;;12.10;4.30;;;;;;;22.70;43.12;100854.86;103745;1307;1043481;-83
2022/05/13 11:28:43;;;;;;;13.60;4.50;;;;;;;22.66;42.83;100849.82;104486;1316;59832;-82
2022/05/13 11:31:33;;;;;;;10.20;4.30;;;;;;;22.65;42.72;100847.20;103637;1316;60481;-83
2022/05/13 11:34:11;;;;;;;10.90;4.20;;;;;;;22.63;42.62;100841.38;103862;1315;72871;-83
2022/05/13 11:37:16;;;;;;;16.10;4.20;;;;;;;22.63;42.76;100841.93;103393;1316;74650;-82
2022/05/13 11:40:19;;;;;;;18.20;4.70;;;;;;;22.62;42.75;100832.33;103250;1321;60568;-82
2022/05/13 11:45:40;;;;;;;13.90;4.10;;;;;;;22.65;42.53;100827.83;103169;1320;72738;-82
2022/05/13 11:48:30;;;;;;;13.20;4.20;;;;;;;22.65;42.56;100822.29;102971;1320;73735;-83
2022/05/13 11:51:14;;;;;;;20.40;4.60;;;;;;;22.63;42.47;100814.84;103305;1320;60550;-82
2022/05/13 11:53:51;;;;;;;17.10;4.10;;;;;;;22.63;42.62;100813.80;103646;1320;60699;-82
2022/05/13 11:56:26;;;;;;;13.50;4.40;;;;;;;22.63;42.71;100810.21;103218;1321;72849;-82
2022/05/13 11:58:57;;;;;;;14.20;4.60;;;;;;;22.63;42.57;100810.04;103341;1316;74803;-82
2022/05/13 12:01:38;;;;;;;14.40;4.40;;;;;;;22.62;42.61;100809.38;104032;1316;60411;-83